sensor_id;sensor_type;location;lat;lon;timestamp;temperature;humidity
546;DHT22;259;53.304;9.816;2023-07-02T00:01:44;19.50;91.50
546;DHT22;259;53.304;9.816;2023-07-02T00:04:10;19.50;91.40
546;DHT22;259;53.304;9.816;2023-07-02T00:06:41;19.40;91.40
546;DHT22;259;53.304;9.816;2023-07-02T00:09:11;19.40;91.50
546;DHT22;259;53.304;9.816;2023-07-02T00:11:41;19.40;91.60
546;DHT22;259;53.304;9.816;2023-07-02T00:14:09;19.40;91.60
546;DHT22;259;53.304;9.816;2023-07-02T00:16:38;19.40;92.00
546;DHT22;259;53.304;9.816;2023-07-02T00:19:06;19.40;91.50
546;DHT22;259;53.304;9.816;2023-07-02T00:21:32;19.40;91.40
546;DHT22;259;53.304;9.816;2023-07-02T00:23:58;19.40;91.40
546;DHT22;259;53.304;9.816;2023-07-02T00:26:28;19.40;91.30
546;DHT22;259;53.304;9.816;2023-07-02T00:28:54;19.40;91.20
546;DHT22;259;53.304;9.816;2023-07-02T00:31:21;19.40;91.30
546;DHT22;259;53.304;9.816;2023-07-02T00:33:47;19.40;91.30
546;DHT22;259;53.304;9.816;2023-07-02T00:36:13;19.40;91.20
546;DHT22;259;53.304;9.816;2023-07-02T00:38:44;19.40;91.20
546;DHT22;259;53.304;9.816;2023-07-02T00:41:11;19.40;91.30
546;DHT22;259;53.304;9.816;2023-07-02T00:43:37;19.40;91.20
546;DHT22;259;53.304;9.816;2023-07-02T00:46:11;19.40;91.30
546;DHT22;259;53.304;9.816;2023-07-02T00:48:55;19.40;91.20
546;DHT22;259;53.304;9.816;2023-07-02T00:51:25;19.40;91.20
546;DHT22;259;53.304;9.816;2023-07-02T00:53:53;19.40;91.20
546;DHT22;259;53.304;9.816;2023-07-02T00:56:21;19.30;91.20
546;DHT22;259;53.304;9.816;2023-07-02T00:58:49;19.30;91.20
546;DHT22;259;53.304;9.816;2023-07-02T01:01:23;19.30;91.20
546;DHT22;259;53.304;9.816;2023-07-02T01:04:00;19.30;91.20
546;DHT22;259;53.304;9.816;2023-07-02T01:06:29;19.30;91.20
546;DHT22;259;53.304;9.816;2023-07-02T01:08:58;19.30;91.20
546;DHT22;259;53.304;9.816;2023-07-02T01:11:32;19.30;91.20
546;DHT22;259;53.304;9.816;2023-07-02T01:14:02;19.30;91.20
546;DHT22;259;53.304;9.816;2023-07-02T01:16:31;19.30;91.30
546;DHT22;259;53.304;9.816;2023-07-02T01:19:00;19.30;91.20
546;DHT22;259;53.304;9.816;2023-07-02T01:21:29;19.30;91.20
546;DHT22;259;53.304;9.816;2023-07-02T01:23:57;19.30;91.20
546;DHT22;259;53.304;9.816;2023-07-02T01:26:30;19.20;91.20
546;DHT22;259;53.304;9.816;2023-07-02T01:28:59;19.30;91.20
546;DHT22;259;53.304;9.816;2023-07-02T01:31:26;19.20;91.20
546;DHT22;259;53.304;9.816;2023-07-02T01:33:51;19.20;91.20
546;DHT22;259;53.304;9.816;2023-07-02T01:36:18;19.20;91.20
546;DHT22;259;53.304;9.816;2023-07-02T01:38:43;19.20;91.30
546;DHT22;259;53.304;9.816;2023-07-02T01:41:09;19.20;91.30
546;DHT22;259;53.304;9.816;2023-07-02T01:43:35;19.20;91.30
546;DHT22;259;53.304;9.816;2023-07-02T01:46:00;19.20;91.30
546;DHT22;259;53.304;9.816;2023-07-02T01:48:27;19.20;91.30
546;DHT22;259;53.304;9.816;2023-07-02T01:50:53;19.20;91.40
546;DHT22;259;53.304;9.816;2023-07-02T01:53:18;19.20;91.30
546;DHT22;259;53.304;9.816;2023-07-02T01:55:44;19.20;91.30
546;DHT22;259;53.304;9.816;2023-07-02T01:58:10;19.10;91.20
546;DHT22;259;53.304;9.816;2023-07-02T02:00:35;19.20;91.10
546;DHT22;259;53.304;9.816;2023-07-02T02:03:01;19.20;91.10
546;DHT22;259;53.304;9.816;2023-07-02T02:05:27;19.20;91.10
546;DHT22;259;53.304;9.816;2023-07-02T02:07:53;19.20;91.10
546;DHT22;259;53.304;9.816;2023-07-02T02:10:18;19.20;91.00
546;DHT22;259;53.304;9.816;2023-07-02T02:12:44;19.20;91.10
546;DHT22;259;53.304;9.816;2023-07-02T02:15:10;19.10;91.10
546;DHT22;259;53.304;9.816;2023-07-02T02:17:39;19.20;91.10
546;DHT22;259;53.304;9.816;2023-07-02T02:20:05;19.10;91.10
546;DHT22;259;53.304;9.816;2023-07-02T02:22:32;19.10;91.00
546;DHT22;259;53.304;9.816;2023-07-02T02:24:57;19.10;91.10
546;DHT22;259;53.304;9.816;2023-07-02T02:27:23;19.10;91.10
546;DHT22;259;53.304;9.816;2023-07-02T02:29:49;19.10;91.10
546;DHT22;259;53.304;9.816;2023-07-02T02:32:14;19.10;91.00
546;DHT22;259;53.304;9.816;2023-07-02T02:34:42;19.10;91.00
546;DHT22;259;53.304;9.816;2023-07-02T02:37:08;19.10;91.10
546;DHT22;259;53.304;9.816;2023-07-02T02:39:34;19.10;91.10
546;DHT22;259;53.304;9.816;2023-07-02T02:41:59;19.10;91.10
546;DHT22;259;53.304;9.816;2023-07-02T02:44:25;19.10;91.10
546;DHT22;259;53.304;9.816;2023-07-02T02:46:50;19.10;91.10
546;DHT22;259;53.304;9.816;2023-07-02T02:49:16;19.10;91.10
546;DHT22;259;53.304;9.816;2023-07-02T02:51:42;19.00;91.00
546;DHT22;259;53.304;9.816;2023-07-02T02:54:08;19.10;91.10
546;DHT22;259;53.304;9.816;2023-07-02T02:56:34;19.00;91.10
546;DHT22;259;53.304;9.816;2023-07-02T02:58:59;19.00;91.10
546;DHT22;259;53.304;9.816;2023-07-02T03:01:25;19.00;91.10
546;DHT22;259;53.304;9.816;2023-07-02T03:03:58;19.00;91.10
546;DHT22;259;53.304;9.816;2023-07-02T03:06:24;19.00;91.10
546;DHT22;259;53.304;9.816;2023-07-02T03:08:50;19.00;91.20
546;DHT22;259;53.304;9.816;2023-07-02T03:11:16;19.00;91.10
546;DHT22;259;53.304;9.816;2023-07-02T03:13:41;19.00;91.20
546;DHT22;259;53.304;9.816;2023-07-02T03:16:07;18.90;91.10
546;DHT22;259;53.304;9.816;2023-07-02T03:18:33;18.90;91.50
546;DHT22;259;53.304;9.816;2023-07-02T03:20:59;18.90;91.20
546;DHT22;259;53.304;9.816;2023-07-02T03:23:25;18.90;91.30
546;DHT22;259;53.304;9.816;2023-07-02T03:25:50;18.90;91.60
546;DHT22;259;53.304;9.816;2023-07-02T03:28:16;18.90;91.30
546;DHT22;259;53.304;9.816;2023-07-02T03:30:42;18.90;91.20
546;DHT22;259;53.304;9.816;2023-07-02T03:33:09;18.90;91.20
546;DHT22;259;53.304;9.816;2023-07-02T03:35:35;18.90;91.10
546;DHT22;259;53.304;9.816;2023-07-02T03:38:02;19.00;91.10
546;DHT22;259;53.304;9.816;2023-07-02T03:40:28;18.90;91.00
546;DHT22;259;53.304;9.816;2023-07-02T03:42:54;18.90;91.00
546;DHT22;259;53.304;9.816;2023-07-02T03:45:19;18.90;91.00
546;DHT22;259;53.304;9.816;2023-07-02T03:47:45;18.90;91.00
546;DHT22;259;53.304;9.816;2023-07-02T03:50:11;18.90;90.90
546;DHT22;259;53.304;9.816;2023-07-02T03:52:36;18.90;90.90
546;DHT22;259;53.304;9.816;2023-07-02T03:55:02;18.90;90.90
546;DHT22;259;53.304;9.816;2023-07-02T03:57:28;18.90;91.00
546;DHT22;259;53.304;9.816;2023-07-02T03:59:54;18.90;91.00
546;DHT22;259;53.304;9.816;2023-07-02T04:02:20;18.90;91.00
546;DHT22;259;53.304;9.816;2023-07-02T04:04:45;18.90;91.00
546;DHT22;259;53.304;9.816;2023-07-02T04:07:11;18.90;91.00
546;DHT22;259;53.304;9.816;2023-07-02T04:09:37;18.90;91.00
546;DHT22;259;53.304;9.816;2023-07-02T04:12:04;18.90;91.10
546;DHT22;259;53.304;9.816;2023-07-02T04:14:30;18.80;90.90
546;DHT22;259;53.304;9.816;2023-07-02T04:16:56;18.90;91.00
546;DHT22;259;53.304;9.816;2023-07-02T04:19:21;18.80;90.90
546;DHT22;259;53.304;9.816;2023-07-02T04:21:47;18.80;91.00
546;DHT22;259;53.304;9.816;2023-07-02T04:24:13;18.80;91.00
546;DHT22;259;53.304;9.816;2023-07-02T04:26:38;18.80;91.00
546;DHT22;259;53.304;9.816;2023-07-02T04:29:09;18.80;91.00
546;DHT22;259;53.304;9.816;2023-07-02T04:31:34;18.80;91.00
546;DHT22;259;53.304;9.816;2023-07-02T04:34:00;18.80;91.00
546;DHT22;259;53.304;9.816;2023-07-02T04:36:26;18.80;91.10
546;DHT22;259;53.304;9.816;2023-07-02T04:38:52;18.80;91.00
546;DHT22;259;53.304;9.816;2023-07-02T04:41:18;18.80;91.00
546;DHT22;259;53.304;9.816;2023-07-02T04:43:44;18.80;91.00
546;DHT22;259;53.304;9.816;2023-07-02T04:46:11;18.80;91.00
546;DHT22;259;53.304;9.816;2023-07-02T04:48:38;18.70;90.90
546;DHT22;259;53.304;9.816;2023-07-02T04:51:04;18.70;91.00
546;DHT22;259;53.304;9.816;2023-07-02T04:53:29;18.70;91.00
546;DHT22;259;53.304;9.816;2023-07-02T04:55:55;18.70;91.10
546;DHT22;259;53.304;9.816;2023-07-02T04:58:22;18.70;91.20
546;DHT22;259;53.304;9.816;2023-07-02T05:00:48;18.70;91.20
546;DHT22;259;53.304;9.816;2023-07-02T05:03:14;18.70;91.20
546;DHT22;259;53.304;9.816;2023-07-02T05:05:40;18.70;91.20
546;DHT22;259;53.304;9.816;2023-07-02T05:08:05;18.70;91.20
546;DHT22;259;53.304;9.816;2023-07-02T05:10:31;18.70;91.10
546;DHT22;259;53.304;9.816;2023-07-02T05:12:57;18.70;91.10
546;DHT22;259;53.304;9.816;2023-07-02T05:15:24;18.70;90.90
546;DHT22;259;53.304;9.816;2023-07-02T05:17:50;18.70;91.00
546;DHT22;259;53.304;9.816;2023-07-02T05:20:15;18.70;90.90
546;DHT22;259;53.304;9.816;2023-07-02T05:22:41;18.70;90.90
546;DHT22;259;53.304;9.816;2023-07-02T05:25:07;18.70;90.90
546;DHT22;259;53.304;9.816;2023-07-02T05:27:33;18.70;90.90
546;DHT22;259;53.304;9.816;2023-07-02T05:29:59;18.70;90.90
546;DHT22;259;53.304;9.816;2023-07-02T05:32:24;18.70;90.90
546;DHT22;259;53.304;9.816;2023-07-02T05:34:50;18.70;91.00
546;DHT22;259;53.304;9.816;2023-07-02T05:37:16;18.70;91.00
546;DHT22;259;53.304;9.816;2023-07-02T05:39:42;18.70;91.10
546;DHT22;259;53.304;9.816;2023-07-02T05:42:07;18.70;91.00
546;DHT22;259;53.304;9.816;2023-07-02T05:44:33;18.70;91.00
546;DHT22;259;53.304;9.816;2023-07-02T05:46:59;18.60;90.90
546;DHT22;259;53.304;9.816;2023-07-02T05:49:24;18.60;91.00
546;DHT22;259;53.304;9.816;2023-07-02T05:51:51;18.60;90.90
546;DHT22;259;53.304;9.816;2023-07-02T05:54:17;18.60;91.00
546;DHT22;259;53.304;9.816;2023-07-02T05:56:43;18.60;91.10
546;DHT22;259;53.304;9.816;2023-07-02T05:59:08;18.60;91.00
546;DHT22;259;53.304;9.816;2023-07-02T06:01:34;18.60;91.10
546;DHT22;259;53.304;9.816;2023-07-02T06:04:00;18.60;91.00
546;DHT22;259;53.304;9.816;2023-07-02T06:06:25;18.60;91.00
546;DHT22;259;53.304;9.816;2023-07-02T06:08:52;18.60;91.10
546;DHT22;259;53.304;9.816;2023-07-02T06:11:18;18.60;91.10
546;DHT22;259;53.304;9.816;2023-07-02T06:13:43;18.60;91.10
546;DHT22;259;53.304;9.816;2023-07-02T06:16:09;18.60;91.10
546;DHT22;259;53.304;9.816;2023-07-02T06:18:35;18.60;91.10
546;DHT22;259;53.304;9.816;2023-07-02T06:21:00;18.60;91.10
546;DHT22;259;53.304;9.816;2023-07-02T06:23:26;18.60;91.30
546;DHT22;259;53.304;9.816;2023-07-02T06:25:52;18.60;91.00
546;DHT22;259;53.304;9.816;2023-07-02T06:28:25;18.60;91.10
546;DHT22;259;53.304;9.816;2023-07-02T06:30:51;18.60;91.10
546;DHT22;259;53.304;9.816;2023-07-02T06:33:16;18.60;91.10
546;DHT22;259;53.304;9.816;2023-07-02T06:35:42;18.60;91.20
546;DHT22;259;53.304;9.816;2023-07-02T06:38:08;18.50;91.20
546;DHT22;259;53.304;9.816;2023-07-02T06:40:33;18.50;91.20
546;DHT22;259;53.304;9.816;2023-07-02T06:42:59;18.60;91.30
546;DHT22;259;53.304;9.816;2023-07-02T06:45:25;18.60;91.30
546;DHT22;259;53.304;9.816;2023-07-02T06:47:51;18.50;91.20
546;DHT22;259;53.304;9.816;2023-07-02T06:50:16;18.60;91.20
546;DHT22;259;53.304;9.816;2023-07-02T06:52:42;18.60;91.10
546;DHT22;259;53.304;9.816;2023-07-02T06:55:08;18.60;91.10
546;DHT22;259;53.304;9.816;2023-07-02T06:57:34;18.60;91.00
546;DHT22;259;53.304;9.816;2023-07-02T07:00:00;18.60;91.00
546;DHT22;259;53.304;9.816;2023-07-02T07:02:26;18.60;91.00
546;DHT22;259;53.304;9.816;2023-07-02T07:04:52;18.60;91.00
546;DHT22;259;53.304;9.816;2023-07-02T07:07:18;18.70;91.00
546;DHT22;259;53.304;9.816;2023-07-02T07:09:44;18.60;91.00
546;DHT22;259;53.304;9.816;2023-07-02T07:12:10;18.70;90.90
546;DHT22;259;53.304;9.816;2023-07-02T07:14:36;18.60;91.00
546;DHT22;259;53.304;9.816;2023-07-02T07:17:01;18.60;90.90
546;DHT22;259;53.304;9.816;2023-07-02T07:19:28;18.60;90.90
546;DHT22;259;53.304;9.816;2023-07-02T07:21:53;18.60;91.00
546;DHT22;259;53.304;9.816;2023-07-02T07:24:19;18.70;91.00
546;DHT22;259;53.304;9.816;2023-07-02T07:26:45;18.70;91.40
546;DHT22;259;53.304;9.816;2023-07-02T07:29:11;18.70;91.00
546;DHT22;259;53.304;9.816;2023-07-02T07:31:37;18.70;91.00
546;DHT22;259;53.304;9.816;2023-07-02T07:34:02;18.60;91.00
546;DHT22;259;53.304;9.816;2023-07-02T07:36:28;18.60;91.00
546;DHT22;259;53.304;9.816;2023-07-02T07:38:53;18.70;91.10
546;DHT22;259;53.304;9.816;2023-07-02T07:41:19;18.70;91.10
546;DHT22;259;53.304;9.816;2023-07-02T07:43:45;18.60;90.90
546;DHT22;259;53.304;9.816;2023-07-02T07:46:10;18.70;91.20
546;DHT22;259;53.304;9.816;2023-07-02T07:48:36;18.70;91.00
546;DHT22;259;53.304;9.816;2023-07-02T07:51:02;18.80;90.80
546;DHT22;259;53.304;9.816;2023-07-02T07:53:28;18.80;90.80
546;DHT22;259;53.304;9.816;2023-07-02T07:55:54;18.80;90.80
546;DHT22;259;53.304;9.816;2023-07-02T07:58:19;18.90;90.70
546;DHT22;259;53.304;9.816;2023-07-02T08:00:45;18.90;90.40
546;DHT22;259;53.304;9.816;2023-07-02T08:03:10;18.90;90.30
546;DHT22;259;53.304;9.816;2023-07-02T08:05:36;18.90;90.20
546;DHT22;259;53.304;9.816;2023-07-02T08:08:02;18.90;90.10
546;DHT22;259;53.304;9.816;2023-07-02T08:10:28;18.90;90.10
546;DHT22;259;53.304;9.816;2023-07-02T08:12:53;18.90;90.10
546;DHT22;259;53.304;9.816;2023-07-02T08:15:19;18.90;90.20
546;DHT22;259;53.304;9.816;2023-07-02T08:17:45;18.80;90.20
546;DHT22;259;53.304;9.816;2023-07-02T08:20:11;18.80;90.30
546;DHT22;259;53.304;9.816;2023-07-02T08:22:40;18.80;90.20
546;DHT22;259;53.304;9.816;2023-07-02T08:25:07;18.80;90.20
546;DHT22;259;53.304;9.816;2023-07-02T08:27:33;18.70;90.70
546;DHT22;259;53.304;9.816;2023-07-02T08:29:59;18.80;90.40
546;DHT22;259;53.304;9.816;2023-07-02T08:32:24;18.80;90.10
546;DHT22;259;53.304;9.816;2023-07-02T08:34:50;18.80;90.10
546;DHT22;259;53.304;9.816;2023-07-02T08:37:17;18.80;89.60
546;DHT22;259;53.304;9.816;2023-07-02T08:39:43;18.80;89.20
546;DHT22;259;53.304;9.816;2023-07-02T08:42:09;18.80;89.00
546;DHT22;259;53.304;9.816;2023-07-02T08:44:35;18.80;89.10
546;DHT22;259;53.304;9.816;2023-07-02T08:47:01;18.80;88.80
546;DHT22;259;53.304;9.816;2023-07-02T08:49:27;18.80;88.70
546;DHT22;259;53.304;9.816;2023-07-02T08:51:53;18.80;88.50
546;DHT22;259;53.304;9.816;2023-07-02T08:54:18;18.90;88.40
546;DHT22;259;53.304;9.816;2023-07-02T08:56:45;18.90;88.10
546;DHT22;259;53.304;9.816;2023-07-02T08:59:12;18.90;88.40
546;DHT22;259;53.304;9.816;2023-07-02T09:01:52;18.90;87.90
546;DHT22;259;53.304;9.816;2023-07-02T09:04:25;18.90;87.80
546;DHT22;259;53.304;9.816;2023-07-02T09:07:10;18.90;87.80
546;DHT22;259;53.304;9.816;2023-07-02T09:09:50;18.90;87.80
546;DHT22;259;53.304;9.816;2023-07-02T09:12:30;18.90;87.70
546;DHT22;259;53.304;9.816;2023-07-02T09:15:00;18.90;87.70
546;DHT22;259;53.304;9.816;2023-07-02T09:17:36;18.90;87.70
546;DHT22;259;53.304;9.816;2023-07-02T09:20:06;18.90;87.60
546;DHT22;259;53.304;9.816;2023-07-02T09:22:34;18.90;87.30
546;DHT22;259;53.304;9.816;2023-07-02T09:25:01;18.90;87.50
546;DHT22;259;53.304;9.816;2023-07-02T09:27:38;18.90;87.50
546;DHT22;259;53.304;9.816;2023-07-02T09:30:09;18.90;87.40
546;DHT22;259;53.304;9.816;2023-07-02T09:32:39;18.90;87.50
546;DHT22;259;53.304;9.816;2023-07-02T09:35:05;18.80;87.40
546;DHT22;259;53.304;9.816;2023-07-02T09:37:32;18.90;87.40
546;DHT22;259;53.304;9.816;2023-07-02T09:39:58;18.90;87.20
546;DHT22;259;53.304;9.816;2023-07-02T09:42:25;18.90;86.70
546;DHT22;259;53.304;9.816;2023-07-02T09:44:52;18.90;86.50
546;DHT22;259;53.304;9.816;2023-07-02T09:47:21;18.90;86.60
546;DHT22;259;53.304;9.816;2023-07-02T09:50:03;18.90;86.20
546;DHT22;259;53.304;9.816;2023-07-02T09:52:32;18.90;86.50
546;DHT22;259;53.304;9.816;2023-07-02T09:54:58;18.90;86.30
546;DHT22;259;53.304;9.816;2023-07-02T09:57:24;19.00;86.10
546;DHT22;259;53.304;9.816;2023-07-02T09:59:50;19.00;85.90
546;DHT22;259;53.304;9.816;2023-07-02T10:02:16;19.00;85.60
546;DHT22;259;53.304;9.816;2023-07-02T10:04:46;19.00;85.60
546;DHT22;259;53.304;9.816;2023-07-02T10:07:25;19.00;85.50
546;DHT22;259;53.304;9.816;2023-07-02T10:09:54;19.00;85.70
546;DHT22;259;53.304;9.816;2023-07-02T10:12:21;19.00;85.70
546;DHT22;259;53.304;9.816;2023-07-02T10:14:49;19.00;85.80
546;DHT22;259;53.304;9.816;2023-07-02T10:17:28;19.00;85.70
546;DHT22;259;53.304;9.816;2023-07-02T10:19:57;19.00;85.60
546;DHT22;259;53.304;9.816;2023-07-02T10:22:47;19.00;85.50
546;DHT22;259;53.304;9.816;2023-07-02T10:25:25;19.00;85.30
546;DHT22;259;53.304;9.816;2023-07-02T10:27:52;19.00;85.30
546;DHT22;259;53.304;9.816;2023-07-02T10:30:17;19.00;85.10
546;DHT22;259;53.304;9.816;2023-07-02T10:32:43;19.00;84.90
546;DHT22;259;53.304;9.816;2023-07-02T10:35:19;19.10;84.90
546;DHT22;259;53.304;9.816;2023-07-02T10:37:45;19.10;84.80
546;DHT22;259;53.304;9.816;2023-07-02T10:40:11;19.10;84.70
546;DHT22;259;53.304;9.816;2023-07-02T10:42:51;19.10;84.50
546;DHT22;259;53.304;9.816;2023-07-02T10:45:18;19.10;84.40
546;DHT22;259;53.304;9.816;2023-07-02T10:47:45;19.10;84.10
546;DHT22;259;53.304;9.816;2023-07-02T10:50:19;19.10;84.00
546;DHT22;259;53.304;9.816;2023-07-02T10:52:46;19.10;83.70
546;DHT22;259;53.304;9.816;2023-07-02T10:55:23;19.10;83.60
546;DHT22;259;53.304;9.816;2023-07-02T10:57:50;19.10;83.50
546;DHT22;259;53.304;9.816;2023-07-02T11:00:18;19.10;83.40
546;DHT22;259;53.304;9.816;2023-07-02T11:02:45;19.10;83.40
546;DHT22;259;53.304;9.816;2023-07-02T11:05:11;19.10;83.30
546;DHT22;259;53.304;9.816;2023-07-02T11:07:41;19.20;83.40
546;DHT22;259;53.304;9.816;2023-07-02T11:10:09;19.20;83.20
546;DHT22;259;53.304;9.816;2023-07-02T11:12:35;19.20;83.10
546;DHT22;259;53.304;9.816;2023-07-02T11:15:14;19.20;83.10
546;DHT22;259;53.304;9.816;2023-07-02T11:17:41;19.20;83.00
546;DHT22;259;53.304;9.816;2023-07-02T11:20:11;19.20;83.00
546;DHT22;259;53.304;9.816;2023-07-02T11:22:38;19.20;83.00
546;DHT22;259;53.304;9.816;2023-07-02T11:25:15;19.20;82.90
546;DHT22;259;53.304;9.816;2023-07-02T11:27:42;19.30;83.20
546;DHT22;259;53.304;9.816;2023-07-02T11:30:08;19.30;82.80
546;DHT22;259;53.304;9.816;2023-07-02T11:32:50;19.30;82.90
546;DHT22;259;53.304;9.816;2023-07-02T11:35:17;19.30;82.50
546;DHT22;259;53.304;9.816;2023-07-02T11:37:43;19.30;82.50
546;DHT22;259;53.304;9.816;2023-07-02T11:40:09;19.30;82.70
546;DHT22;259;53.304;9.816;2023-07-02T11:42:35;19.30;82.70
546;DHT22;259;53.304;9.816;2023-07-02T11:45:01;19.30;82.70
546;DHT22;259;53.304;9.816;2023-07-02T11:47:27;19.30;82.60
546;DHT22;259;53.304;9.816;2023-07-02T11:49:53;19.30;82.40
546;DHT22;259;53.304;9.816;2023-07-02T11:52:20;19.40;82.40
546;DHT22;259;53.304;9.816;2023-07-02T11:54:47;19.40;81.90
546;DHT22;259;53.304;9.816;2023-07-02T11:57:13;19.40;81.50
546;DHT22;259;53.304;9.816;2023-07-02T11:59:39;19.50;81.40
546;DHT22;259;53.304;9.816;2023-07-02T12:02:05;19.50;81.10
546;DHT22;259;53.304;9.816;2023-07-02T12:04:31;19.50;80.70
546;DHT22;259;53.304;9.816;2023-07-02T12:06:56;19.50;80.50
546;DHT22;259;53.304;9.816;2023-07-02T12:09:22;19.50;80.30
546;DHT22;259;53.304;9.816;2023-07-02T12:11:48;19.60;80.40
546;DHT22;259;53.304;9.816;2023-07-02T12:14:13;19.60;80.30
546;DHT22;259;53.304;9.816;2023-07-02T12:16:39;19.70;80.30
546;DHT22;259;53.304;9.816;2023-07-02T12:19:05;19.70;80.00
546;DHT22;259;53.304;9.816;2023-07-02T12:21:31;19.70;79.70
546;DHT22;259;53.304;9.816;2023-07-02T12:23:57;19.70;79.50
546;DHT22;259;53.304;9.816;2023-07-02T12:26:22;19.60;79.40
546;DHT22;259;53.304;9.816;2023-07-02T12:28:48;19.60;79.50
546;DHT22;259;53.304;9.816;2023-07-02T12:31:14;19.60;79.50
546;DHT22;259;53.304;9.816;2023-07-02T12:33:39;19.60;79.40
546;DHT22;259;53.304;9.816;2023-07-02T12:36:05;19.70;79.30
546;DHT22;259;53.304;9.816;2023-07-02T12:38:31;19.70;79.00
546;DHT22;259;53.304;9.816;2023-07-02T12:40:57;19.70;78.70
546;DHT22;259;53.304;9.816;2023-07-02T12:43:22;19.70;78.60
546;DHT22;259;53.304;9.816;2023-07-02T12:45:48;19.70;78.30
546;DHT22;259;53.304;9.816;2023-07-02T12:48:14;19.70;78.90
546;DHT22;259;53.304;9.816;2023-07-02T12:50:39;19.70;78.20
546;DHT22;259;53.304;9.816;2023-07-02T12:53:06;19.70;78.20
546;DHT22;259;53.304;9.816;2023-07-02T12:55:31;19.70;78.10
546;DHT22;259;53.304;9.816;2023-07-02T12:57:57;19.70;78.10
546;DHT22;259;53.304;9.816;2023-07-02T13:00:23;19.80;78.20
546;DHT22;259;53.304;9.816;2023-07-02T13:02:49;19.80;78.30
546;DHT22;259;53.304;9.816;2023-07-02T13:05:14;19.90;78.40
546;DHT22;259;53.304;9.816;2023-07-02T13:07:40;19.90;78.20
546;DHT22;259;53.304;9.816;2023-07-02T13:10:06;19.90;77.60
546;DHT22;259;53.304;9.816;2023-07-02T13:12:32;20.00;77.30
546;DHT22;259;53.304;9.816;2023-07-02T13:14:58;20.00;77.10
546;DHT22;259;53.304;9.816;2023-07-02T13:17:24;20.00;77.20
546;DHT22;259;53.304;9.816;2023-07-02T13:19:50;20.00;77.30
546;DHT22;259;53.304;9.816;2023-07-02T13:22:15;20.00;77.50
546;DHT22;259;53.304;9.816;2023-07-02T13:24:41;20.00;77.60
546;DHT22;259;53.304;9.816;2023-07-02T13:27:12;20.00;77.40
546;DHT22;259;53.304;9.816;2023-07-02T13:29:40;20.00;77.60
546;DHT22;259;53.304;9.816;2023-07-02T13:32:07;20.00;77.50
546;DHT22;259;53.304;9.816;2023-07-02T13:34:32;20.00;77.30
546;DHT22;259;53.304;9.816;2023-07-02T13:36:58;20.00;77.30
546;DHT22;259;53.304;9.816;2023-07-02T13:39:24;20.00;77.20
546;DHT22;259;53.304;9.816;2023-07-02T13:41:50;20.00;77.10
546;DHT22;259;53.304;9.816;2023-07-02T13:44:16;20.00;76.90
546;DHT22;259;53.304;9.816;2023-07-02T13:46:43;20.00;76.70
546;DHT22;259;53.304;9.816;2023-07-02T13:49:10;20.00;76.50
546;DHT22;259;53.304;9.816;2023-07-02T13:51:36;20.10;76.40
546;DHT22;259;53.304;9.816;2023-07-02T13:54:01;20.10;76.00
546;DHT22;259;53.304;9.816;2023-07-02T13:56:27;20.10;75.60
546;DHT22;259;53.304;9.816;2023-07-02T14:01:22;20.10;75.50
546;DHT22;259;53.304;9.816;2023-07-02T14:03:51;20.10;75.50
546;DHT22;259;53.304;9.816;2023-07-02T14:06:18;20.10;75.30
546;DHT22;259;53.304;9.816;2023-07-02T14:08:43;20.10;75.40
546;DHT22;259;53.304;9.816;2023-07-02T14:11:09;20.10;75.50
546;DHT22;259;53.304;9.816;2023-07-02T14:13:35;20.20;75.60
546;DHT22;259;53.304;9.816;2023-07-02T14:16:01;20.20;75.60
546;DHT22;259;53.304;9.816;2023-07-02T14:18:27;20.20;76.00
546;DHT22;259;53.304;9.816;2023-07-02T14:20:53;20.20;76.10
546;DHT22;259;53.304;9.816;2023-07-02T14:23:18;20.30;76.00
546;DHT22;259;53.304;9.816;2023-07-02T14:25:44;20.30;76.00
546;DHT22;259;53.304;9.816;2023-07-02T14:28:10;20.30;76.20
546;DHT22;259;53.304;9.816;2023-07-02T14:30:36;20.20;76.30
546;DHT22;259;53.304;9.816;2023-07-02T14:33:02;20.20;76.50
546;DHT22;259;53.304;9.816;2023-07-02T14:35:28;20.20;76.30
546;DHT22;259;53.304;9.816;2023-07-02T14:37:56;20.30;76.30
546;DHT22;259;53.304;9.816;2023-07-02T14:40:22;20.30;76.90
546;DHT22;259;53.304;9.816;2023-07-02T14:42:48;20.30;75.90
546;DHT22;259;53.304;9.816;2023-07-02T14:45:14;20.30;75.90
546;DHT22;259;53.304;9.816;2023-07-02T14:47:40;20.30;75.90
546;DHT22;259;53.304;9.816;2023-07-02T14:50:06;20.20;76.00
546;DHT22;259;53.304;9.816;2023-07-02T14:52:32;20.20;76.00
546;DHT22;259;53.304;9.816;2023-07-02T14:54:58;20.20;76.10
546;DHT22;259;53.304;9.816;2023-07-02T14:57:27;20.20;76.20
546;DHT22;259;53.304;9.816;2023-07-02T14:59:53;20.30;76.50
546;DHT22;259;53.304;9.816;2023-07-02T15:02:19;20.30;76.50
546;DHT22;259;53.304;9.816;2023-07-02T15:04:45;20.30;76.50
546;DHT22;259;53.304;9.816;2023-07-02T15:07:11;20.30;76.50
546;DHT22;259;53.304;9.816;2023-07-02T15:09:37;20.30;76.40
546;DHT22;259;53.304;9.816;2023-07-02T15:12:02;20.30;76.30
546;DHT22;259;53.304;9.816;2023-07-02T15:14:28;20.20;76.20
546;DHT22;259;53.304;9.816;2023-07-02T15:16:54;20.20;76.10
546;DHT22;259;53.304;9.816;2023-07-02T15:19:20;20.20;76.10
546;DHT22;259;53.304;9.816;2023-07-02T15:21:45;20.30;76.30
546;DHT22;259;53.304;9.816;2023-07-02T15:24:11;20.30;76.50
546;DHT22;259;53.304;9.816;2023-07-02T15:26:39;20.30;76.40
546;DHT22;259;53.304;9.816;2023-07-02T15:29:05;20.30;76.30
546;DHT22;259;53.304;9.816;2023-07-02T15:31:31;20.30;76.30
546;DHT22;259;53.304;9.816;2023-07-02T15:33:57;20.30;76.30
546;DHT22;259;53.304;9.816;2023-07-02T15:36:23;20.30;76.30
546;DHT22;259;53.304;9.816;2023-07-02T15:38:49;20.30;76.40
546;DHT22;259;53.304;9.816;2023-07-02T15:41:17;20.30;76.70
546;DHT22;259;53.304;9.816;2023-07-02T15:43:45;20.30;76.60
546;DHT22;259;53.304;9.816;2023-07-02T15:46:13;20.30;76.70
546;DHT22;259;53.304;9.816;2023-07-02T15:48:41;20.30;76.50
546;DHT22;259;53.304;9.816;2023-07-02T15:51:07;20.30;76.20
546;DHT22;259;53.304;9.816;2023-07-02T15:53:37;20.40;76.20
546;DHT22;259;53.304;9.816;2023-07-02T15:56:03;20.30;75.50
546;DHT22;259;53.304;9.816;2023-07-02T15:58:30;20.40;75.50
546;DHT22;259;53.304;9.816;2023-07-02T16:01:12;20.40;75.40
546;DHT22;259;53.304;9.816;2023-07-02T16:03:39;20.30;75.20
546;DHT22;259;53.304;9.816;2023-07-02T16:06:06;20.30;75.40
546;DHT22;259;53.304;9.816;2023-07-02T16:08:33;20.40;75.50
546;DHT22;259;53.304;9.816;2023-07-02T16:10:58;20.40;75.60
546;DHT22;259;53.304;9.816;2023-07-02T16:13:24;20.40;75.50
546;DHT22;259;53.304;9.816;2023-07-02T16:15:50;20.40;75.30
546;DHT22;259;53.304;9.816;2023-07-02T16:18:16;20.40;75.20
546;DHT22;259;53.304;9.816;2023-07-02T16:20:42;20.30;74.80
546;DHT22;259;53.304;9.816;2023-07-02T16:23:08;20.30;74.80
546;DHT22;259;53.304;9.816;2023-07-02T16:25:34;20.30;74.70
546;DHT22;259;53.304;9.816;2023-07-02T16:27:59;20.30;74.80
546;DHT22;259;53.304;9.816;2023-07-02T16:30:25;20.30;74.80
546;DHT22;259;53.304;9.816;2023-07-02T16:32:51;20.30;75.10
546;DHT22;259;53.304;9.816;2023-07-02T16:35:17;20.30;75.30